Latest Weather Observations for Bundaberg

IDQ60801

Issued at 12:02 pm EST Monday 25 July 2016 (issued every 30 minutes, with the page automatically refreshed every 10 minutes)

About weather observations | Map of weather stations | Latest weather observations for QLD | Other Formats
Station Details ID: 039128 Name: BUNDABERG AERO Lat: -24.91 Lon: 152.32 Height: 30.82 m
Data from the previous 72 hours. | See also: Recent months at Bundaberg
Date/Time
EST
Temp
°C
App
Temp
°C
Dew
Point
°C
Rel
Hum
%
Delta-T
°C
Wind Press
QNH
hPa
Press
MSL
hPa
Rain since
9am
mm
Dir  Spd
km/h
Gust
km/h
Spd
kts
Gust
kts
25/12:00pm 21.5 17.4 6.2 37 7.7 SW 17 28 9 15 1017.4 1017.4 0.0
25/11:30am 21.5 17.8 8.1 42 7.0 SSW 17 24 9 13 1018.0 1018.0 0.0
25/11:00am 20.8 16.5 7.1 41 7.0 SSW 19 26 10 14 1018.4 1018.4 0.0
25/10:30am 19.9 15.1 5.5 39 7.1 SW 20 32 11 17 1018.8 1018.8 0.0
25/10:00am 19.7 15.0 6.1 41 6.8 SW 20 28 11 15 1019.1 1019.1 0.0
25/09:30am 19.1 15.4 8.1 49 5.7 SW 17 24 9 13 1019.2 1019.2 0.0
25/09:00am 18.5 15.2 7.9 50 5.4 SW 15 22 8 12 1019.1 1019.1 0.0
25/08:30am 17.4 14.0 9.3 59 4.2 SW 17 26 9 14 1018.9 1018.9 0.0
25/08:00am 16.2 13.0 10.1 67 3.2 SW 17 26 9 14 1018.7 1018.7 0.0
25/07:30am 15.5 13.2 10.5 72 2.6 SW 13 20 7 11 1018.2 1018.2 0.0
25/07:00am 14.4 13.3 11.9 85 1.3 SW 9 13 5 7 1017.7 1017.7 0.0
25/06:30am 14.2 12.9 12.4 89 1.0 SW 11 15 6 8 1017.2 1017.2 0.0
25/06:00am 13.9 12.8 13.0 94 0.5 SW 11 13 6 7 1016.7 1016.7 0.0
25/05:30am 13.8 13.6 13.0 95 0.4 WSW 6 7 3 4 1016.4 1016.4 0.0
25/05:00am 13.1 12.0 12.0 93 0.6 W 9 9 5 5 1016.0 1016.0 0.0
25/04:30am 14.3 14.0 12.7 90 0.9 WSW 6 6 3 3 1015.7 1015.6 0.0
25/04:00am 15.2 14.6 13.6 90 0.9 WSW 9 11 5 6 1015.5 1015.4 0.0
25/03:30am 15.1 14.6 13.8 92 0.7 WSW 9 13 5 7 1015.5 1015.4 0.0
25/03:00am 14.9 14.9 14.1 95 0.5 WSW 7 9 4 5 1015.3 1015.2 0.0
25/02:30am 15.0 15.1 14.4 96 0.3 WSW 7 9 4 5 1015.2 1015.1 0.0
25/02:00am 14.6 13.8 14.0 96 0.3 W 11 13 6 7 1015.2 1015.1 0.0
25/01:30am 14.3 14.0 13.3 94 0.6 NW 7 9 4 5 1015.3 1015.2 0.0
25/01:00am 14.0 13.6 12.9 93 0.6 NW 7 9 4 5 1015.3 1015.2 0.0
25/12:30am 14.3 15.3 13.2 93 0.6 CALM 0 0 0 0 1015.5 1015.4 0.0
25/12:00am 14.6 15.6 13.3 92 0.7 CALM 0 0 0 0 1015.4 1015.3 0.0
 
Date/Time
EST
Temp
°C
App
Temp
°C
Dew
Point
°C
Rel
Hum
%
Delta-T
°C
Wind Press
QNH
hPa
Press
MSL
hPa
Rain since
9am
mm
Dir  Spd
km/h
Gust
km/h
Spd
kts
Gust
kts
24/11:30pm 14.7 15.8 13.4 92 0.7 CALM 0 0 0 0 1015.5 1015.4 0.0
24/11:00pm 14.5 15.4 13.0 91 0.8 CALM 0 0 0 0 1015.7 1015.6 0.0
24/10:30pm 14.7 15.7 13.1 90 0.9 CALM 0 0 0 0 1015.9 1015.9 0.0
24/10:00pm 14.8 15.8 13.2 90 0.9 CALM 0 0 0 0 1016.0 1016.0 0.0
24/09:30pm 15.6 16.7 13.4 87 1.2 CALM 0 0 0 0 1015.8 1015.7 0.0
24/09:00pm 15.5 16.4 12.8 84 1.5 CALM 0 0 0 0 1015.8 1015.7 0.0
24/08:30pm 16.2 17.0 12.4 78 2.1 CALM 0 0 0 0 1015.6 1015.5 0.0
24/08:00pm 17.2 18.0 12.7 75 2.5 CALM 0 0 0 0 1015.5 1015.4 0.0
24/07:30pm 17.9 17.5 12.4 70 3.1 NE 6 7 3 4 1015.3 1015.2 0.0
24/07:00pm 17.7 17.5 13.6 77 2.3 NE 7 9 4 5 1014.9 1014.8 0.0
24/06:30pm 19.0 18.7 12.7 67 3.5 NE 6 7 3 4 1014.6 1014.5 0.0
24/06:00pm 19.2 18.6 13.4 69 3.3 NE 9 11 5 6 1014.2 1014.1 0.0
24/05:30pm 20.2 19.0 14.1 68 3.5 NE 13 15 7 8 1013.7 1013.6 0.0
24/05:00pm 21.4 20.5 13.8 62 4.4 ENE 11 17 6 9 1013.6 1013.5 0.0
24/04:30pm 22.5 20.9 13.8 58 5.1 NE 15 19 8 10 1013.3 1013.2 0.0
24/04:00pm 23.4 21.7 13.6 54 5.7 NNE 15 20 8 11 1013.3 1013.2 0.0
24/03:30pm 23.8 21.8 12.8 50 6.3 NNE 15 20 8 11 1013.2 1013.1 0.0
24/03:00pm 24.4 22.3 12.4 47 6.9 NNE 15 20 8 11 1013.3 1013.2 0.0
24/02:30pm 25.0 23.6 12.2 44 7.3 NNE 11 17 6 9 1013.4 1013.3 0.0
24/02:00pm 25.2 24.1 12.1 44 7.5 NNE 9 13 5 7 1013.7 1013.6 0.0
24/01:30pm 24.9 23.3 11.5 43 7.6 NNW 11 17 6 9 1014.3 1014.2 0.0
24/01:00pm 24.5 22.8 10.0 40 8.0 N 9 13 5 7 1014.7 1014.6 0.0
24/12:30pm 23.8 22.3 9.0 39 8.0 NNE 7 13 4 7 1015.1 1015.0 0.0
24/12:00pm 23.4 22.2 9.4 41 7.6 NNW 6 9 3 5 1015.7 1015.6 0.0
24/11:30am 22.7 21.7 8.8 41 7.4 E 4 9 2 5 1016.2 1016.2 0.0
24/11:00am 21.5 20.7 9.7 47 6.3 SSW 4 7 2 4 1016.7 1016.7 0.0
24/10:30am 20.8 19.5 9.1 47 6.2 SSW 6 9 3 5 1017.1 1017.1 0.0
24/10:00am 19.9 18.1 9.5 51 5.5 SW 9 13 5 7 1017.3 1017.3 0.0
24/09:30am 19.3 17.3 10.3 56 4.8 S 11 15 6 8 1017.2 1017.2 0.0
24/09:00am 17.7 15.6 9.6 59 4.3 SW 11 15 6 8 1017.2 1017.2 0.2
24/08:30am 16.9 14.4 9.6 62 3.8 SSW 13 17 7 9 1016.9 1016.9 0.2
24/08:00am 16.4 13.7 9.1 62 3.8 SSW 13 20 7 11 1016.8 1016.8 0.2
24/07:30am 15.5 14.2 9.8 69 3.0 SSW 7 13 4 7 1016.4 1016.4 0.2
24/07:00am 14.8 13.3 10.4 75 2.3 SSW 9 15 5 8 1016.2 1016.2 0.2
24/06:30am 14.6 12.7 10.6 77 2.1 SSW 11 17 6 9 1015.9 1015.9 0.2
24/06:00am 15.1 13.0 11.3 78 2.0 SSW 13 19 7 10 1015.6 1015.5 0.2
24/05:30am 15.4 13.9 11.8 79 1.9 SSW 11 17 6 9 1015.1 1015.0 0.2
24/05:00am 15.9 14.2 12.3 79 2.0 SSW 13 19 7 10 1014.6 1014.5 0.2
24/04:30am 16.0 15.3 13.1 83 1.6 SSW 9 13 5 7 1014.2 1014.1 0.2
24/04:00am 16.8 16.0 13.9 83 1.6 SSW 11 15 6 8 1013.9 1013.8 0.2
24/03:30am 16.0 16.3 14.9 93 0.6 SSW 7 11 4 6 1013.7 1013.6 0.2
24/03:00am 16.6 17.2 15.8 95 0.5 SSW 7 9 4 5 1013.6 1013.5 0.2
24/02:30am 17.5 18.3 17.3 99 0.1 SSW 9 13 5 7 1013.4 1013.3 0.2
24/02:00am 16.5 17.2 16.0 97 0.3 SW 7 9 4 5 1013.2 1013.1 0.2
24/01:58am 16.0 16.6 15.4 96 0.3 SW 6 9 3 5 1013.2 1013.1 0.2
24/01:30am 16.7 17.6 16.2 97 0.3 WSW 6 6 3 3 1013.2 1013.1 0.2
24/01:00am 16.6 17.3 16.1 97 0.3 W 7 7 4 4 1013.2 1013.1 0.2
24/12:30am 17.3 18.3 16.8 97 0.3 NNW 7 9 4 5 1013.2 1013.1 0.2
24/12:23am 17.2 17.8 16.7 97 0.3 NNW 9 9 5 5 1013.1 1013.0 0.2
24/12:00am 17.4 18.0 16.8 96 0.4 NNW 9 9 5 5 1013.2 1013.1 0.2
 
Date/Time
EST
Temp
°C
App
Temp
°C
Dew
Point
°C
Rel
Hum
%
Delta-T
°C
Wind Press
QNH
hPa
Press
MSL
hPa
Rain since
9am
mm
Dir  Spd
km/h
Gust
km/h
Spd
kts
Gust
kts
23/11:30pm 17.6 18.3 17.0 96 0.4 NNW 9 9 5 5 1013.2 1013.1 0.2
23/11:00pm 18.2 19.1 17.6 96 0.4 NNW 9 11 5 6 1013.3 1013.2 0.2
23/10:30pm 18.2 19.0 17.2 94 0.6 NNW 9 11 5 6 1013.1 1013.0 0.2
23/10:00pm 19.0 20.0 17.8 93 0.7 N 9 11 5 6 1013.2 1013.1 0.2
23/09:30pm 19.2 20.3 18.0 93 0.7 N 9 11 5 6 1013.1 1013.0 0.2
23/09:00pm 19.1 20.2 18.1 94 0.6 N 9 11 5 6 1012.9 1012.8 0.2
23/08:30pm 18.6 20.0 17.3 92 0.8 NW 6 7 3 4 1012.8 1012.7 0.2
23/08:00pm 19.6 22.2 18.3 92 0.8 NW 2 6 1 3 1012.5 1012.4 0.2
23/07:30pm 20.0 20.5 18.3 90 1.1 NNW 13 17 7 9 1012.0 1011.9 0.2
23/07:00pm 20.3 20.8 18.4 89 1.2 N 13 17 7 9 1011.6 1011.5 0.2
23/06:30pm 20.7 20.9 18.6 88 1.3 N 15 19 8 10 1011.3 1011.2 0.2
23/06:00pm 21.0 20.5 18.6 86 1.5 N 19 22 10 12 1011.0 1010.9 0.2
23/05:30pm 21.6 21.4 18.4 82 2.0 N 17 22 9 12 1010.9 1010.8 0.2
23/05:00pm 22.7 22.1 18.5 77 2.6 N 19 24 10 13 1010.7 1010.6 0.2
23/04:30pm 23.9 23.3 18.8 73 3.2 N 20 24 11 13 1010.5 1010.4 0.2
23/04:00pm 24.9 23.9 18.8 69 3.9 N 22 28 12 15 1010.3 1010.2 0.2
23/03:30pm 25.6 24.8 18.5 65 4.5 N 20 28 11 15 1010.3 1010.2 0.2
23/03:00pm 25.9 24.8 18.6 64 4.7 N 22 28 12 15 1010.3 1010.2 0.2
23/02:30pm 25.3 23.0 17.7 62 4.8 N 26 32 14 17 1010.2 1010.1 0.2
23/02:00pm 26.3 24.9 18.7 63 4.9 NNE 24 30 13 16 1010.5 1010.4 0.2
23/01:30pm 26.4 25.4 18.8 63 4.9 N 22 28 12 15 1010.6 1010.5 0.2
23/01:00pm 27.5 27.2 18.2 57 5.9 N 17 28 9 15 1011.0 1010.9 0.2
23/12:30pm 27.3 26.2 17.8 56 6.0 NW 20 28 11 15 1011.3 1011.2 0.2
23/12:00pm 26.8 26.7 17.8 57 5.7 NW 15 22 8 12 1011.8 1011.7 0.2
23/11:30am 24.8 24.1 17.3 63 4.7 NNW 17 22 9 12 1012.6 1012.5 0.0
23/11:00am 23.9 23.6 17.4 67 4.0 NW 15 19 8 10 1013.1 1013.0 0.0
23/10:30am 22.9 22.4 16.9 69 3.7 NNW 15 19 8 10 1013.6 1013.5 0.0
23/10:00am 22.4 21.1 16.7 70 3.5 NNW 19 26 10 14 1013.9 1013.8 0.0
23/09:30am 21.6 21.2 17.2 76 2.7 NW 15 20 8 11 1014.1 1014.0 0.0
23/09:00am 21.3 21.2 17.9 81 2.1 NW 15 22 8 12 1014.1 1014.0 0.0
23/08:30am 19.4 20.0 17.7 90 1.0 NW 11 15 6 8 1014.2 1014.1 0.0
23/08:00am 18.5 19.0 17.5 94 0.6 NNW 11 15 6 8 1014.1 1014.0 0.0
23/07:30am 17.9 18.0 17.4 97 0.3 NNW 13 15 7 8 1014.1 1014.0 0.0
23/07:00am 17.6 17.7 17.4 99 0.1 NNW 13 15 7 8 1013.9 1013.8 0.0
23/06:30am 16.2 16.1 16.0 99 0.1 NNW 11 13 6 7 1013.7 1013.6 0.0
23/06:15am 16.0 15.8 15.7 98 0.2 NNW 11 11 6 6 1013.5 1013.4 0.0
23/06:00am 15.8 15.9 15.5 98 0.2 NW 9 9 5 5 1013.4 1013.3 0.0
23/05:54am 15.8 15.9 15.5 98 0.2 NW 9 9 5 5 1013.3 1013.2 0.0
23/05:31am 16.1 16.2 15.6 97 0.3 NNW 9 9 5 5 1013.2 1013.1 0.0
23/05:30am 16.1 16.2 15.6 97 0.3 NNW 9 9 5 5 1013.2 1013.1 0.0
23/05:11am 16.2 16.9 15.7 97 0.3 NNW 6 9 3 5 1013.1 1013.0 0.0
23/05:00am 16.4 16.7 15.9 97 0.3 NNW 9 9 5 5 1013.1 1013.0 0.0
23/04:30am 16.8 17.2 16.2 96 0.4 WNW 9 11 5 6 1013.0 1012.9 0.0
23/04:00am 17.4 17.3 16.9 97 0.3 NW 13 15 7 8 1012.7 1012.6 0.0
23/03:30am 17.3 17.1 16.8 97 0.3 NNW 13 15 7 8 1012.6 1012.5 0.0
23/03:00am 17.5 17.4 16.9 96 0.4 NNW 13 15 7 8 1012.7 1012.6 0.0
23/02:30am 17.8 17.4 17.2 96 0.4 NNW 15 17 8 9 1012.9 1012.8 0.0
23/02:00am 17.9 17.2 17.3 96 0.4 NNW 17 19 9 10 1013.0 1012.9 0.0
23/01:30am 18.1 17.4 17.3 95 0.5 NNW 17 20 9 11 1013.2 1013.1 0.0
23/01:00am 18.1 17.7 17.1 94 0.6 NNW 15 20 8 11 1013.4 1013.3 0.0
23/12:30am 18.3 17.7 17.5 95 0.5 NNW 17 20 9 11 1013.6 1013.5 0.0
23/12:00am 18.3 17.7 17.5 95 0.5 NNW 17 20 9 11 1013.6 1013.5 0.0
 
Date/Time
EST
Temp
°C
App
Temp
°C
Dew
Point
°C
Rel
Hum
%
Delta-T
°C
Wind Press
QNH
hPa
Press
MSL
hPa
Rain since
9am
mm
Dir  Spd
km/h
Gust
km/h
Spd
kts
Gust
kts
22/11:30pm 18.5 18.0 17.7 95 0.5 NNW 17 20 9 11 1013.7 1013.6 0.0
22/11:00pm 18.6 17.5 17.8 95 0.5 NNW 20 26 11 14 1013.9 1013.8 0.0
22/10:30pm 18.7 17.8 17.7 94 0.6 NNW 19 24 10 13 1014.1 1014.0 0.0
22/10:00pm 18.9 18.0 17.7 93 0.7 NNW 19 20 10 11 1014.3 1014.2 0.0
22/09:30pm 19.0 18.1 17.8 93 0.7 NNW 19 24 10 13 1014.5 1014.4 0.0
22/09:00pm 19.0 18.0 17.5 91 0.9 NNW 19 22 10 12 1014.5 1014.4 0.0
22/08:30pm 19.1 18.4 17.4 90 1.0 NNW 17 22 9 12 1014.5 1014.4 0.0
22/08:00pm 19.4 18.3 17.2 87 1.3 NNW 19 22 10 12 1014.5 1014.4 0.0
22/07:30pm 19.9 18.7 17.5 86 1.5 NNW 20 24 11 13 1014.6 1014.5 0.0
22/07:00pm 20.0 18.8 17.4 85 1.6 N 20 24 11 13 1014.3 1014.2 0.0
22/06:30pm 20.3 19.8 17.7 85 1.6 N 17 24 9 13 1014.0 1013.9 0.0
22/06:00pm 20.4 19.6 17.2 82 2.0 N 17 20 9 11 1013.7 1013.6 0.0
22/05:30pm 20.8 19.6 17.0 79 2.3 N 19 24 10 13 1013.6 1013.5 0.0
22/05:00pm 21.6 20.4 17.4 77 2.6 N 20 28 11 15 1013.5 1013.4 0.0
22/04:30pm 22.6 20.5 17.1 71 3.4 N 24 30 13 16 1013.3 1013.2 0.0
22/04:00pm 23.4 21.7 17.2 68 3.8 N 22 26 12 14 1013.2 1013.1 0.0
22/03:30pm 24.3 22.4 16.8 63 4.6 N 22 28 12 15 1013.3 1013.2 0.0
22/03:00pm 24.8 23.0 16.0 58 5.4 N 20 26 11 14 1013.2 1013.1 0.0
22/02:30pm 24.8 23.1 16.2 58 5.3 N 20 28 11 15 1013.4 1013.3 0.0
22/02:00pm 25.3 23.7 16.4 57 5.5 N 20 26 11 14 1013.6 1013.5 0.0
22/01:30pm 25.2 24.1 16.4 58 5.4 N 17 22 9 12 1013.8 1013.7 0.0
22/01:00pm 25.4 24.7 16.3 57 5.6 N 15 22 8 12 1014.2 1014.1 0.0
22/12:30pm 25.9 26.8 16.5 56 5.8 NNW 7 17 4 9 1014.7 1014.6 0.0

Other Formats:

Comma delimited format used in spreadsheet applications
http://www.bom.gov.au/fwo/IDQ60801/IDQ60801.94387.axf

JavaScript Object Notation format (JSON) in row-major order
http://www.bom.gov.au/fwo/IDQ60801/IDQ60801.94387.json